Latest Weather Observations for Port Lincoln Airport

IDS60801

Issued at 2:02 pm CDT Friday 19 December 2014 (issued every 30 minutes, with the page automatically refreshed every 10 minutes)

About weather observations | Map of weather stations | Latest weather observations for SA | Other Formats
Station Details ID: 018192 Name: PORT LINCOLN AWS Lat: -34.60 Lon: 135.88 Height: 8.5 m
Data from the previous 72 hours. | See also: Recent months at Port Lincoln Airport
Date/Time
CDT
Temp
°C
App
Temp
°C
Dew
Point
Rel
Hum
%
Delta-T
°C
Wind Press
QNH
hPa
Press
MSL
hPa
Rain
since 9 am
mm
Dir
 
Spd
km/h
Gust
km/h
Spd
kts
Gust
kts
19/02:00pm 20.3 16.4 9.5 50 5.7 SE 20 28 11 15 1021.4 1021.4 0.0
19/01:30pm 20.5 16.7 9.1 48 6.0 SE 19 30 10 16 1021.5 1021.5 0.0
19/01:00pm 21.3 17.5 9.2 46 6.4 SE 19 28 10 15 1021.5 1021.5 0.0
19/12:30pm 21.1 17.2 8.7 45 6.5 SE 19 26 10 14 1021.7 1021.7 0.0
19/12:00pm 20.3 16.0 8.0 45 6.3 SE 20 26 11 14 1021.7 1021.7 0.0
19/11:30am 20.2 16.4 7.6 44 6.4 SSE 17 22 9 12 1021.8 1021.8 0.0
19/11:00am 19.8 16.2 6.9 43 6.5 SE 15 26 8 14 1021.8 1021.8 0.0
19/10:30am 19.1 15.3 7.5 47 5.9 SE 17 22 9 12 1021.7 1021.7 0.0
19/10:00am 19.0 16.0 7.8 48 5.7 SE 13 20 7 11 1021.8 1021.8 0.0
19/09:30am 18.6 16.1 8.0 50 5.4 SE 11 20 6 11 1021.6 1021.6 0.0
19/09:00am 17.1 14.6 8.0 55 4.6 S 11 15 6 8 1021.4 1021.4 0.0
19/08:30am 16.8 14.1 8.8 59 4.1 SSW 13 15 7 8 1021.2 1021.2 0.0
19/08:00am 17.6 14.2 9.2 58 4.4 S 17 20 9 11 1020.6 1020.6 0.0
19/07:30am 16.0 14.5 9.2 64 3.5 NW 7 11 4 6 1020.3 1020.3 0.0
19/07:00am 12.0 11.3 8.7 80 1.6 NNW 2 7 1 4 1019.9 1019.9 0.0
19/06:30am 10.7 8.9 7.8 82 1.4 WNW 7 9 4 5 1019.4 1019.4 0.0
19/06:00am 11.0 9.3 7.7 80 1.6 WNW 6 7 3 4 1019.1 1019.1 0.0
19/05:30am 10.7 8.0 7.2 79 1.7 SW 11 13 6 7 1018.8 1018.8 0.0
19/05:00am 11.4 8.7 7.3 76 2.0 SW 11 13 6 7 1018.8 1018.8 0.0
19/04:30am 12.0 9.3 7.5 74 2.2 SW 11 13 6 7 1018.7 1018.7 0.0
19/04:00am 12.1 9.0 7.4 73 2.3 SW 13 15 7 8 1018.9 1018.9 0.0
19/03:30am 12.0 9.3 7.3 73 2.3 SW 11 13 6 7 1018.8 1018.8 0.0
19/03:00am 12.2 9.1 7.1 71 2.4 SW 13 15 7 8 1018.9 1018.9 0.0
19/02:30am 12.5 9.8 7.4 71 2.5 SW 11 15 6 8 1019.0 1019.0 0.0
19/02:00am 12.5 9.9 7.6 72 2.4 SW 11 15 6 8 1019.1 1019.1 0.0
19/01:30am 12.3 9.9 7.2 71 2.5 SW 9 13 5 7 1019.4 1019.4 0.0
19/01:00am 12.6 9.8 7.1 69 2.6 SW 11 15 6 8 1019.3 1019.3 0.0
19/12:30am 12.9 9.8 7.4 69 2.7 SW 13 15 7 8 1019.3 1019.3 0.0
19/12:00am 13.2 10.2 7.6 69 2.7 SW 13 17 7 9 1019.2 1019.2 0.0
 
Date/Time
CDT
Temp
°C
App
Temp
°C
Dew
Point
Rel
Hum
%
Delta-T
°C
Wind Press
QNH
hPa
Press
MSL
hPa
Rain
since 9 am
mm
Dir
 
Spd
km/h
Gust
km/h
Spd
kts
Gust
kts
18/11:30pm 14.2 10.9 8.2 67 3.0 SW 15 20 8 11 1019.2 1019.2 0.0
18/11:00pm 15.0 11.1 8.7 66 3.2 SSW 19 24 10 13 1019.1 1019.1 0.0
18/10:30pm 15.4 11.7 9.3 67 3.1 SSW 19 22 10 12 1018.8 1018.8 0.0
18/10:00pm 15.4 12.5 9.5 68 3.0 SW 15 20 8 11 1018.6 1018.6 0.0
18/09:30pm 15.9 12.2 9.6 66 3.3 SSW 19 26 10 14 1018.2 1018.2 0.0
18/09:00pm 16.8 13.2 10.0 64 3.6 SSW 19 22 10 12 1018.0 1018.0 0.0
18/08:30pm 16.6 11.9 9.1 61 3.9 SSW 24 30 13 16 1017.8 1017.8 0.0
18/08:00pm 17.6 12.6 8.2 54 4.8 S 24 33 13 18 1017.5 1017.5 0.0
18/07:30pm 17.9 12.4 9.0 56 4.6 S 28 35 15 19 1017.0 1017.0 0.0
18/07:00pm 18.3 12.1 9.4 56 4.7 S 32 41 17 22 1016.5 1016.5 0.0
18/06:30pm 19.0 12.7 9.8 55 4.9 S 33 41 18 22 1015.9 1015.9 0.0
18/06:00pm 20.9 15.1 7.9 43 6.7 SW 28 39 15 21 1015.6 1015.6 0.0
18/05:30pm 19.2 13.3 10.5 57 4.7 S 32 41 17 22 1015.4 1015.4 0.0
18/05:00pm 21.0 14.4 7.6 42 6.9 SSW 32 43 17 23 1015.2 1015.2 0.0
18/04:30pm 22.4 15.8 7.8 39 7.6 WSW 32 44 17 24 1015.1 1015.1 0.0
18/04:05pm 23.1 16.3 7.6 37 8.1 SW 33 52 18 28 1014.7 1014.7 0.0
18/04:00pm 22.5 15.9 7.9 39 7.6 SW 32 48 17 26 1014.7 1014.7 0.0
18/03:39pm 23.1 16.6 6.4 34 8.5 SW 30 50 16 27 1014.3 1014.3 0.0
18/03:30pm 22.4 16.3 8.1 40 7.5 SW 30 44 16 24 1014.3 1014.3 0.0
18/03:05pm 23.7 17.6 8.2 37 8.2 SW 30 46 16 25 1014.1 1014.1 0.0
18/03:00pm 23.6 17.5 9.6 41 7.6 SW 32 44 17 24 1014.1 1014.1 0.0
18/02:31pm 23.5 17.8 8.4 38 8.0 SW 28 46 15 25 1014.0 1014.0 0.0
18/02:30pm 23.7 18.4 8.5 38 8.1 SW 26 39 14 21 1014.0 1014.0 0.0
18/02:00pm 22.3 16.1 9.5 44 6.9 SW 32 46 17 25 1014.1 1014.1 0.0
18/01:30pm 22.4 16.6 9.6 44 6.9 SW 30 46 16 25 1014.0 1014.0 0.0
18/01:04pm 23.1 17.3 10.9 46 6.8 SW 32 50 17 27 1013.8 1013.8 0.0
18/01:00pm 21.3 15.3 10.2 49 6.0 SW 32 43 17 23 1013.9 1013.9 0.0
18/12:50pm 22.4 16.4 10.2 46 6.7 WSW 32 57 17 31 1013.7 1013.7 0.0
18/12:30pm 22.5 17.5 10.9 48 6.4 WSW 28 43 15 23 1013.7 1013.7 0.0
18/12:00pm 21.7 16.3 10.8 50 6.0 WSW 30 39 16 21 1013.6 1013.6 0.0
18/11:30am 22.1 15.9 9.9 46 6.6 WSW 33 44 18 24 1013.3 1013.3 0.0
18/11:00am 21.6 16.0 10.1 48 6.2 WSW 30 41 16 22 1013.3 1013.3 0.0
18/10:30am 21.8 16.6 10.3 48 6.3 WSW 28 39 15 21 1013.0 1013.0 0.0
18/10:00am 21.7 16.6 10.5 49 6.1 WSW 28 39 15 21 1012.8 1012.8 0.0
18/09:30am 20.1 14.4 11.1 56 4.9 WSW 32 39 17 21 1012.5 1012.5 0.0
18/09:00am 19.9 14.9 10.9 56 4.9 WSW 28 39 15 21 1012.1 1012.1 0.0
18/08:30am 18.6 15.1 12.1 66 3.6 W 22 28 12 15 1011.9 1011.9 0.0
18/08:00am 17.5 14.5 12.4 72 2.8 WNW 20 30 11 16 1011.6 1011.6 0.0
18/07:30am 16.0 13.4 12.0 77 2.2 NW 17 20 9 11 1011.3 1011.3 0.0
18/07:00am 13.7 11.2 11.2 85 1.3 WNW 15 17 8 9 1011.1 1011.1 0.0
18/06:30am 12.2 9.5 10.3 88 1.0 WNW 15 17 8 9 1010.9 1010.9 0.0
18/06:00am 12.2 9.5 10.3 88 1.0 WNW 15 19 8 10 1010.4 1010.4 0.0
18/05:30am 11.4 8.0 9.3 87 1.1 WNW 17 20 9 11 1010.0 1010.0 0.0
18/05:00am 11.5 8.5 9.4 87 1.1 WNW 15 17 8 9 1009.5 1009.5 0.0
18/04:30am 11.8 8.8 9.4 85 1.2 WNW 15 17 8 9 1009.5 1009.5 0.0
18/04:00am 12.1 8.7 9.3 83 1.4 WNW 17 19 9 10 1009.5 1009.5 0.0
18/03:30am 12.1 9.1 9.3 83 1.4 WNW 15 17 8 9 1009.4 1009.4 0.0
18/03:00am 11.9 8.8 8.7 81 1.6 WNW 15 19 8 10 1009.5 1009.5 0.0
18/02:30am 11.8 8.7 9.0 83 1.4 NW 15 17 8 9 1009.4 1009.4 0.0
18/02:00am 11.4 8.9 8.3 81 1.5 NW 11 13 6 7 1009.4 1009.4 0.0
18/01:30am 11.6 8.4 8.3 80 1.6 NW 15 17 8 9 1009.4 1009.4 0.0
18/01:00am 11.6 8.4 8.3 80 1.6 WNW 15 15 8 8 1009.4 1009.4 0.0
18/12:30am 11.9 9.4 8.4 79 1.7 WNW 11 15 6 8 1009.5 1009.5 0.0
18/12:00am 11.4 8.6 7.1 75 2.1 NW 11 11 6 6 1009.5 1009.5 0.0
 
Date/Time
CDT
Temp
°C
App
Temp
°C
Dew
Point
Rel
Hum
%
Delta-T
°C
Wind Press
QNH
hPa
Press
MSL
hPa
Rain
since 9 am
mm
Dir
 
Spd
km/h
Gust
km/h
Spd
kts
Gust
kts
17/11:30pm 11.8 9.6 7.7 76 2.0 NW 9 11 5 6 1009.8 1009.8 0.0
17/11:00pm 12.0 9.0 7.7 75 2.1 NW 13 15 7 8 1009.9 1009.9 0.0
17/10:30pm 12.4 9.7 7.5 72 2.4 NW 11 13 6 7 1009.7 1009.7 0.0
17/10:00pm 12.9 11.1 8.0 72 2.4 WNW 7 9 4 5 1009.4 1009.4 0.0
17/09:30pm 14.7 12.8 7.7 63 3.5 WSW 7 9 4 5 1009.6 1009.6 0.0
17/09:00pm 15.8 12.9 8.3 61 3.8 WSW 13 17 7 9 1009.7 1009.7 0.0
17/08:30pm 16.9 13.6 8.1 56 4.5 WSW 15 20 8 11 1009.5 1009.5 0.0
17/08:00pm 18.0 13.9 8.6 54 4.9 WSW 20 28 11 15 1009.0 1009.0 0.0
17/07:30pm 18.9 14.0 8.3 50 5.5 WSW 24 32 13 17 1008.7 1008.7 0.0
17/07:00pm 19.4 13.6 8.1 48 5.8 WSW 28 41 15 22 1008.3 1008.3 0.0
17/06:30pm 20.7 16.2 8.4 45 6.4 W 22 33 12 18 1008.2 1008.2 0.0
17/06:19pm 20.4 16.5 9.6 50 5.8 WSW 20 35 11 19 1007.9 1007.9 0.0
17/06:00pm 19.9 18.5 9.5 51 5.5 NE 7 11 4 6 1008.0 1008.0 0.0
17/05:30pm 20.1 15.5 9.7 51 5.6 SE 24 30 13 16 1008.0 1008.0 0.0
17/05:00pm 20.1 16.8 9.7 51 5.6 SE 17 28 9 15 1008.2 1008.2 0.0
17/04:30pm 20.1 16.3 9.1 49 5.8 ESE 19 26 10 14 1008.5 1008.5 0.0
17/04:00pm 20.7 16.2 8.4 45 6.4 SE 22 32 12 17 1008.8 1008.8 0.0
17/03:30pm 21.2 16.2 8.1 43 6.8 ESE 24 32 13 17 1008.9 1008.9 0.0
17/03:00pm 21.1 15.9 8.7 45 6.5 E 26 32 14 17 1009.0 1009.0 0.0
17/02:30pm 21.6 17.4 7.4 40 7.3 ENE 19 26 10 14 1009.0 1009.0 0.0
17/02:00pm 22.3 18.9 7.7 39 7.6 ESE 15 22 8 12 1009.2 1009.2 0.0
17/01:30pm 21.5 16.4 7.7 41 7.2 E 24 32 13 17 1009.2 1009.2 0.0
17/01:00pm 21.2 17.4 7.4 41 7.1 ESE 17 30 9 16 1009.7 1009.7 0.0
17/12:30pm 22.1 17.9 5.5 34 8.3 NW 17 24 9 13 1010.0 1010.0 0.0
17/12:00pm 21.2 17.9 4.7 34 8.1 NW 11 28 6 15 1010.6 1010.6 0.0
17/11:30am 21.0 17.3 4.6 34 8.0 NW 13 26 7 14 1010.8 1010.8 0.0
17/11:00am 19.7 16.0 4.6 37 7.3 WSW 13 22 7 12 1011.2 1011.2 0.0
17/10:30am 19.5 15.9 5.2 39 7.0 WNW 13 24 7 13 1011.4 1011.4 0.0
17/10:00am 18.3 14.3 4.8 41 6.5 W 15 20 8 11 1011.5 1011.5 0.0
17/09:30am 17.4 13.5 5.4 45 5.8 WNW 15 22 8 12 1011.7 1011.7 0.0
17/09:00am 17.8 15.8 6.3 47 5.7 NW 6 15 3 8 1011.9 1011.9 0.0
17/08:30am 16.7 13.9 6.8 52 4.9 N 11 15 6 8 1012.0 1012.0 0.0
17/08:00am 15.5 12.8 7.5 59 4.0 NNW 11 13 6 7 1012.0 1012.0 0.0
17/07:30am 14.4 12.2 7.7 64 3.3 NNW 9 13 5 7 1012.0 1012.0 0.0
17/07:00am 12.6 9.9 7.3 70 2.6 NW 11 11 6 6 1011.7 1011.7 0.0
17/06:30am 12.3 9.9 7.0 70 2.5 NW 9 11 5 6 1011.3 1011.3 0.0
17/06:00am 12.2 9.7 6.7 69 2.6 NW 9 11 5 6 1011.0 1011.0 0.0
17/05:30am 12.3 9.8 6.6 68 2.7 NNW 9 9 5 5 1010.7 1010.7 0.0
17/05:00am 12.0 9.5 6.5 69 2.6 NW 9 15 5 8 1010.6 1010.6 0.0
17/04:30am 11.2 8.7 6.7 74 2.1 NW 9 11 5 6 1010.4 1010.4 0.0
17/04:00am 10.9 8.0 6.5 74 2.1 NW 11 15 6 8 1010.1 1010.1 0.0
17/03:30am 12.9 10.9 6.9 67 2.9 W 7 9 4 5 1010.0 1010.0 0.0
17/03:00am 13.3 10.9 7.1 66 3.0 W 9 11 5 6 1010.1 1010.1 0.0
17/02:30am 13.7 11.5 7.7 67 3.0 WSW 9 13 5 7 1010.3 1010.3 0.0
17/02:00am 10.2 7.7 6.4 77 1.8 W 9 11 5 6 1010.2 1010.2 0.0
17/01:30am 10.6 7.1 5.6 71 2.3 WSW 13 15 7 8 1010.6 1010.6 0.0
17/01:00am 11.8 8.4 6.1 68 2.7 WSW 13 17 7 9 1010.7 1010.7 0.0
17/12:30am 11.8 8.1 6.3 69 2.6 WSW 15 17 8 9 1010.9 1010.9 0.0
17/12:00am 12.2 8.6 6.7 69 2.6 WSW 15 17 8 9 1011.0 1011.0 0.0
 
Date/Time
CDT
Temp
°C
App
Temp
°C
Dew
Point
Rel
Hum
%
Delta-T
°C
Wind Press
QNH
hPa
Press
MSL
hPa
Rain
since 9 am
mm
Dir
 
Spd
km/h
Gust
km/h
Spd
kts
Gust
kts
16/11:30pm 12.3 9.2 7.2 71 2.5 WSW 13 15 7 8 1011.0 1011.0 0.0
16/11:00pm 11.2 8.3 6.3 72 2.3 WSW 11 13 6 7 1011.1 1011.1 0.0
16/10:30pm 12.4 9.6 6.9 69 2.6 SW 11 13 6 7 1011.1 1011.1 0.0
16/10:00pm 13.2 10.3 6.3 63 3.3 SW 11 17 6 9 1011.2 1011.2 0.0
16/09:30pm 14.5 11.1 6.1 57 4.0 SW 13 20 7 11 1011.1 1011.1 0.0
16/09:00pm 15.2 11.0 5.7 53 4.5 SW 17 24 9 13 1010.7 1010.7 0.0
16/08:30pm 16.3 11.1 7.3 55 4.5 SSW 24 32 13 17 1010.2 1010.2 0.0
16/08:00pm 16.7 11.1 7.1 53 4.8 SW 26 33 14 18 1010.0 1010.0 0.0
16/07:30pm 17.4 10.7 5.7 46 5.7 SW 30 41 16 22 1009.6 1009.6 0.0
16/07:00pm 18.4 11.9 6.6 46 5.9 SW 30 39 16 21 1009.2 1009.2 0.0
16/06:30pm 18.5 11.9 7.6 49 5.5 SW 32 43 17 23 1008.8 1008.8 0.0
16/06:07pm 20.1 13.3 6.8 42 6.7 SW 32 52 17 28 1008.3 1008.3 0.0
16/06:00pm 19.6 12.3 5.6 40 6.9 WSW 33 46 18 25 1008.4 1008.4 0.0
16/05:30pm 19.4 12.4 6.8 44 6.4 SW 33 44 18 24 1008.2 1008.2 0.0
16/05:00pm 19.8 12.1 5.5 39 7.0 WSW 35 50 19 27 1008.0 1008.0 0.0
16/04:30pm 21.2 13.8 6.7 39 7.4 WSW 35 54 19 29 1007.8 1007.8 0.0
16/04:21pm 21.3 14.2 6.4 38 7.5 WSW 33 54 18 29 1007.7 1007.7 0.0
16/04:00pm 20.7 12.9 6.6 40 7.1 WSW 37 50 20 27 1007.7 1007.7 0.0
16/03:41pm 20.7 12.4 6.3 39 7.2 SW 39 57 21 31 1007.4 1007.4 0.0
16/03:30pm 20.9 13.3 7.5 42 6.9 SW 37 50 20 27 1007.6 1007.6 0.0
16/03:00pm 21.4 14.2 7.6 41 7.2 WSW 35 46 19 25 1007.2 1007.2 0.0
16/02:38pm 22.2 15.3 9.0 43 7.0 SW 35 54 19 29 1007.1 1007.1 0.0
16/02:30pm 21.2 14.1 8.1 43 6.9 SW 35 50 19 27 1006.8 1006.8 0.0

Other Formats:

Comma delimited format used in spreadsheet applications
http://www.bom.gov.au/fwo/IDS60801/IDS60801.95661.axf

JavaScript Object Notation format (JSON) in row-major order
http://www.bom.gov.au/fwo/IDS60801/IDS60801.95661.json